sensor_id;sensor_type;location;lat;lon;timestamp;temperature;humidity
6978;DHT22;3529;53.244;10.414;2022-07-21T00:00:56;20.80;99.90
6978;DHT22;3529;53.244;10.414;2022-07-21T00:03:22;20.80;99.90
6978;DHT22;3529;53.244;10.414;2022-07-21T00:05:47;20.80;99.90
6978;DHT22;3529;53.244;10.414;2022-07-21T00:08:13;20.70;99.90
6978;DHT22;3529;53.244;10.414;2022-07-21T00:10:39;20.70;99.90
6978;DHT22;3529;53.244;10.414;2022-07-21T00:13:07;20.70;99.90
6978;DHT22;3529;53.244;10.414;2022-07-21T00:15:32;20.60;99.90
6978;DHT22;3529;53.244;10.414;2022-07-21T00:17:58;20.60;99.90
6978;DHT22;3529;53.244;10.414;2022-07-21T00:20:25;20.60;99.90
6978;DHT22;3529;53.244;10.414;2022-07-21T00:22:53;20.60;99.90
6978;DHT22;3529;53.244;10.414;2022-07-21T00:25:19;20.50;99.90
6978;DHT22;3529;53.244;10.414;2022-07-21T00:27:45;20.50;99.90
6978;DHT22;3529;53.244;10.414;2022-07-21T00:30:11;20.50;99.90
6978;DHT22;3529;53.244;10.414;2022-07-21T00:32:37;20.50;99.90
6978;DHT22;3529;53.244;10.414;2022-07-21T00:35:05;20.50;99.90
6978;DHT22;3529;53.244;10.414;2022-07-21T00:37:31;20.80;99.90
6978;DHT22;3529;53.244;10.414;2022-07-21T00:39:56;20.50;99.90
6978;DHT22;3529;53.244;10.414;2022-07-21T00:42:32;20.40;99.90
6978;DHT22;3529;53.244;10.414;2022-07-21T00:44:58;20.40;99.90
6978;DHT22;3529;53.244;10.414;2022-07-21T00:47:26;20.40;99.90
6978;DHT22;3529;53.244;10.414;2022-07-21T00:49:53;20.40;99.90
6978;DHT22;3529;53.244;10.414;2022-07-21T00:52:19;20.30;99.90
6978;DHT22;3529;53.244;10.414;2022-07-21T00:54:45;20.30;99.90
6978;DHT22;3529;53.244;10.414;2022-07-21T00:57:12;20.30;99.90
6978;DHT22;3529;53.244;10.414;2022-07-21T00:59:38;20.20;99.90
6978;DHT22;3529;53.244;10.414;2022-07-21T01:02:05;20.10;99.90
6978;DHT22;3529;53.244;10.414;2022-07-21T01:04:30;20.10;99.90
6978;DHT22;3529;53.244;10.414;2022-07-21T01:06:57;20.20;99.90
6978;DHT22;3529;53.244;10.414;2022-07-21T01:09:25;20.10;99.90
6978;DHT22;3529;53.244;10.414;2022-07-21T01:11:51;20.20;99.90
6978;DHT22;3529;53.244;10.414;2022-07-21T01:14:17;20.20;99.90
6978;DHT22;3529;53.244;10.414;2022-07-21T01:16:43;20.10;99.90
6978;DHT22;3529;53.244;10.414;2022-07-21T01:19:09;20.10;99.90
6978;DHT22;3529;53.244;10.414;2022-07-21T01:21:40;20.10;99.90
6978;DHT22;3529;53.244;10.414;2022-07-21T01:24:06;20.00;99.90
6978;DHT22;3529;53.244;10.414;2022-07-21T01:26:43;20.10;99.90
6978;DHT22;3529;53.244;10.414;2022-07-21T01:29:09;20.20;99.90
6978;DHT22;3529;53.244;10.414;2022-07-21T01:31:36;20.30;99.90
6978;DHT22;3529;53.244;10.414;2022-07-21T01:34:02;20.30;99.90
6978;DHT22;3529;53.244;10.414;2022-07-21T01:36:28;20.30;99.90
6978;DHT22;3529;53.244;10.414;2022-07-21T01:38:53;20.30;99.90
6978;DHT22;3529;53.244;10.414;2022-07-21T01:41:38;20.30;99.90
6978;DHT22;3529;53.244;10.414;2022-07-21T01:44:06;20.30;99.90
6978;DHT22;3529;53.244;10.414;2022-07-21T01:46:34;20.30;99.90
6978;DHT22;3529;53.244;10.414;2022-07-21T01:49:00;20.20;99.90
6978;DHT22;3529;53.244;10.414;2022-07-21T01:51:26;20.20;99.90
6978;DHT22;3529;53.244;10.414;2022-07-21T01:53:52;20.10;99.90
6978;DHT22;3529;53.244;10.414;2022-07-21T01:56:23;20.10;99.90
6978;DHT22;3529;53.244;10.414;2022-07-21T01:58:51;20.10;99.90
6978;DHT22;3529;53.244;10.414;2022-07-21T02:01:17;20.00;99.90
6978;DHT22;3529;53.244;10.414;2022-07-21T02:03:44;20.00;99.90
6978;DHT22;3529;53.244;10.414;2022-07-21T02:06:10;19.90;99.90
6978;DHT22;3529;53.244;10.414;2022-07-21T02:08:36;19.90;99.90
6978;DHT22;3529;53.244;10.414;2022-07-21T02:11:02;19.80;99.90
6978;DHT22;3529;53.244;10.414;2022-07-21T02:13:28;19.80;99.90
6978;DHT22;3529;53.244;10.414;2022-07-21T02:15:54;19.80;99.90
6978;DHT22;3529;53.244;10.414;2022-07-21T02:18:20;19.70;99.90
6978;DHT22;3529;53.244;10.414;2022-07-21T02:20:46;19.70;99.90
6978;DHT22;3529;53.244;10.414;2022-07-21T02:23:18;19.70;99.90
6978;DHT22;3529;53.244;10.414;2022-07-21T02:25:44;19.60;99.90
6978;DHT22;3529;53.244;10.414;2022-07-21T02:28:11;19.60;99.90
6978;DHT22;3529;53.244;10.414;2022-07-21T02:30:37;19.60;99.90
6978;DHT22;3529;53.244;10.414;2022-07-21T02:33:03;19.60;99.90
6978;DHT22;3529;53.244;10.414;2022-07-21T02:35:29;19.60;99.90
6978;DHT22;3529;53.244;10.414;2022-07-21T02:37:55;19.60;99.90
6978;DHT22;3529;53.244;10.414;2022-07-21T02:40:21;19.50;99.90
6978;DHT22;3529;53.244;10.414;2022-07-21T02:42:47;19.50;99.90
6978;DHT22;3529;53.244;10.414;2022-07-21T02:45:13;19.50;99.90
6978;DHT22;3529;53.244;10.414;2022-07-21T02:47:50;19.40;99.90
6978;DHT22;3529;53.244;10.414;2022-07-21T02:50:16;19.40;99.90
6978;DHT22;3529;53.244;10.414;2022-07-21T02:52:42;19.40;99.90
6978;DHT22;3529;53.244;10.414;2022-07-21T02:55:08;19.40;99.90
6978;DHT22;3529;53.244;10.414;2022-07-21T02:57:34;19.30;99.90
6978;DHT22;3529;53.244;10.414;2022-07-21T03:00:00;19.30;99.90
6978;DHT22;3529;53.244;10.414;2022-07-21T03:02:26;19.30;99.90
6978;DHT22;3529;53.244;10.414;2022-07-21T03:04:51;19.30;99.90
6978;DHT22;3529;53.244;10.414;2022-07-21T03:07:17;19.30;99.90
6978;DHT22;3529;53.244;10.414;2022-07-21T03:09:43;19.30;99.90
6978;DHT22;3529;53.244;10.414;2022-07-21T03:12:08;19.30;99.90
6978;DHT22;3529;53.244;10.414;2022-07-21T03:14:34;19.30;99.90
6978;DHT22;3529;53.244;10.414;2022-07-21T03:17:00;19.30;99.90
6978;DHT22;3529;53.244;10.414;2022-07-21T03:19:27;19.30;99.90
6978;DHT22;3529;53.244;10.414;2022-07-21T03:21:53;19.30;99.90
6978;DHT22;3529;53.244;10.414;2022-07-21T03:24:19;19.30;99.90
6978;DHT22;3529;53.244;10.414;2022-07-21T03:26:45;19.30;99.90
6978;DHT22;3529;53.244;10.414;2022-07-21T03:29:10;19.30;99.90
6978;DHT22;3529;53.244;10.414;2022-07-21T03:31:36;19.30;99.90
6978;DHT22;3529;53.244;10.414;2022-07-21T03:34:02;19.30;99.90
6978;DHT22;3529;53.244;10.414;2022-07-21T03:36:27;19.30;99.90
6978;DHT22;3529;53.244;10.414;2022-07-21T03:38:53;19.30;99.90
6978;DHT22;3529;53.244;10.414;2022-07-21T03:41:19;19.30;99.90
6978;DHT22;3529;53.244;10.414;2022-07-21T03:43:44;19.30;99.90
6978;DHT22;3529;53.244;10.414;2022-07-21T03:46:10;19.30;99.90
6978;DHT22;3529;53.244;10.414;2022-07-21T03:48:35;19.30;99.90
6978;DHT22;3529;53.244;10.414;2022-07-21T03:51:01;19.30;99.90
6978;DHT22;3529;53.244;10.414;2022-07-21T03:53:27;19.30;99.90
6978;DHT22;3529;53.244;10.414;2022-07-21T03:55:52;19.30;99.90
6978;DHT22;3529;53.244;10.414;2022-07-21T03:58:18;19.30;99.90
6978;DHT22;3529;53.244;10.414;2022-07-21T04:00:44;19.40;99.90
6978;DHT22;3529;53.244;10.414;2022-07-21T04:03:11;19.30;99.90
6978;DHT22;3529;53.244;10.414;2022-07-21T04:05:38;19.50;99.90
6978;DHT22;3529;53.244;10.414;2022-07-21T04:08:05;19.50;99.90
6978;DHT22;3529;53.244;10.414;2022-07-21T04:10:33;19.50;99.90
6978;DHT22;3529;53.244;10.414;2022-07-21T04:13:08;19.60;99.90
6978;DHT22;3529;53.244;10.414;2022-07-21T04:15:35;19.60;99.90
6978;DHT22;3529;53.244;10.414;2022-07-21T04:18:01;19.70;99.90
6978;DHT22;3529;53.244;10.414;2022-07-21T04:20:27;19.70;99.90
6978;DHT22;3529;53.244;10.414;2022-07-21T04:22:53;19.90;99.90
6978;DHT22;3529;53.244;10.414;2022-07-21T04:25:19;19.90;99.90
6978;DHT22;3529;53.244;10.414;2022-07-21T04:27:46;20.00;99.90
6978;DHT22;3529;53.244;10.414;2022-07-21T04:30:14;20.20;99.90
6978;DHT22;3529;53.244;10.414;2022-07-21T04:32:40;20.20;99.90
6978;DHT22;3529;53.244;10.414;2022-07-21T04:35:07;20.20;99.90
6978;DHT22;3529;53.244;10.414;2022-07-21T04:37:33;20.20;99.90
6978;DHT22;3529;53.244;10.414;2022-07-21T04:39:59;20.30;99.90
6978;DHT22;3529;53.244;10.414;2022-07-21T04:42:26;20.30;99.90
6978;DHT22;3529;53.244;10.414;2022-07-21T04:44:52;20.30;99.90
6978;DHT22;3529;53.244;10.414;2022-07-21T04:47:18;20.30;99.90
6978;DHT22;3529;53.244;10.414;2022-07-21T04:49:44;20.40;99.90
6978;DHT22;3529;53.244;10.414;2022-07-21T04:52:09;20.60;99.90
6978;DHT22;3529;53.244;10.414;2022-07-21T04:54:35;20.80;99.90
6978;DHT22;3529;53.244;10.414;2022-07-21T04:57:01;20.90;99.90
6978;DHT22;3529;53.244;10.414;2022-07-21T04:59:30;21.00;99.90
6978;DHT22;3529;53.244;10.414;2022-07-21T05:01:56;21.00;99.90
6978;DHT22;3529;53.244;10.414;2022-07-21T05:04:22;21.00;99.90
6978;DHT22;3529;53.244;10.414;2022-07-21T05:06:47;21.00;99.90
6978;DHT22;3529;53.244;10.414;2022-07-21T05:09:13;20.90;99.90
6978;DHT22;3529;53.244;10.414;2022-07-21T05:11:39;20.80;99.90
6978;DHT22;3529;53.244;10.414;2022-07-21T05:14:05;20.80;99.90
6978;DHT22;3529;53.244;10.414;2022-07-21T05:16:31;20.80;99.90
6978;DHT22;3529;53.244;10.414;2022-07-21T05:18:57;20.80;99.90
6978;DHT22;3529;53.244;10.414;2022-07-21T05:21:22;20.80;99.90
6978;DHT22;3529;53.244;10.414;2022-07-21T05:23:48;20.80;99.90
6978;DHT22;3529;53.244;10.414;2022-07-21T05:26:13;20.80;99.90
6978;DHT22;3529;53.244;10.414;2022-07-21T05:28:40;20.80;99.90
6978;DHT22;3529;53.244;10.414;2022-07-21T05:31:06;20.90;99.90
6978;DHT22;3529;53.244;10.414;2022-07-21T05:33:32;21.00;99.90
6978;DHT22;3529;53.244;10.414;2022-07-21T05:35:58;21.10;99.90
6978;DHT22;3529;53.244;10.414;2022-07-21T05:38:23;21.30;99.90
6978;DHT22;3529;53.244;10.414;2022-07-21T05:40:49;21.30;99.90
6978;DHT22;3529;53.244;10.414;2022-07-21T05:43:15;21.30;99.90
6978;DHT22;3529;53.244;10.414;2022-07-21T05:45:40;21.20;99.90
6978;DHT22;3529;53.244;10.414;2022-07-21T05:48:06;21.20;99.90
6978;DHT22;3529;53.244;10.414;2022-07-21T05:50:32;21.10;99.90
6978;DHT22;3529;53.244;10.414;2022-07-21T05:52:57;21.10;99.90
6978;DHT22;3529;53.244;10.414;2022-07-21T05:55:23;21.00;99.90
6978;DHT22;3529;53.244;10.414;2022-07-21T05:57:49;21.00;99.90
6978;DHT22;3529;53.244;10.414;2022-07-21T06:00:15;20.70;99.90
6978;DHT22;3529;53.244;10.414;2022-07-21T06:02:43;20.50;99.90
6978;DHT22;3529;53.244;10.414;2022-07-21T06:05:09;20.30;99.90
6978;DHT22;3529;53.244;10.414;2022-07-21T06:07:36;20.10;99.90
6978;DHT22;3529;53.244;10.414;2022-07-21T06:10:02;19.80;99.90
6978;DHT22;3529;53.244;10.414;2022-07-21T06:12:28;19.60;99.90
6978;DHT22;3529;53.244;10.414;2022-07-21T06:14:54;19.50;99.90
6978;DHT22;3529;53.244;10.414;2022-07-21T06:17:21;19.40;99.90
6978;DHT22;3529;53.244;10.414;2022-07-21T06:19:46;19.30;99.90
6978;DHT22;3529;53.244;10.414;2022-07-21T06:22:12;19.20;99.90
6978;DHT22;3529;53.244;10.414;2022-07-21T06:24:37;19.10;99.90
6978;DHT22;3529;53.244;10.414;2022-07-21T06:27:04;19.10;99.90
6978;DHT22;3529;53.244;10.414;2022-07-21T06:29:29;19.00;99.90
6978;DHT22;3529;53.244;10.414;2022-07-21T06:31:55;19.00;99.90
6978;DHT22;3529;53.244;10.414;2022-07-21T06:34:20;19.00;99.90
6978;DHT22;3529;53.244;10.414;2022-07-21T06:36:46;19.00;99.90
6978;DHT22;3529;53.244;10.414;2022-07-21T06:39:12;19.00;99.90
6978;DHT22;3529;53.244;10.414;2022-07-21T06:41:38;18.90;99.90
6978;DHT22;3529;53.244;10.414;2022-07-21T06:44:04;18.90;99.90
6978;DHT22;3529;53.244;10.414;2022-07-21T06:46:34;18.90;99.90
6978;DHT22;3529;53.244;10.414;2022-07-21T06:49:01;18.90;99.90
6978;DHT22;3529;53.244;10.414;2022-07-21T06:51:27;18.90;99.90
6978;DHT22;3529;53.244;10.414;2022-07-21T06:53:52;18.90;99.90
6978;DHT22;3529;53.244;10.414;2022-07-21T06:56:18;18.90;99.90
6978;DHT22;3529;53.244;10.414;2022-07-21T06:58:44;18.90;99.90
6978;DHT22;3529;53.244;10.414;2022-07-21T07:01:10;18.90;99.90
6978;DHT22;3529;53.244;10.414;2022-07-21T07:03:36;19.00;99.90
6978;DHT22;3529;53.244;10.414;2022-07-21T07:06:02;19.10;99.90
6978;DHT22;3529;53.244;10.414;2022-07-21T07:08:28;19.10;99.90
6978;DHT22;3529;53.244;10.414;2022-07-21T07:10:53;19.20;99.90
6978;DHT22;3529;53.244;10.414;2022-07-21T07:13:19;19.20;99.90
6978;DHT22;3529;53.244;10.414;2022-07-21T07:15:45;19.20;99.90
6978;DHT22;3529;53.244;10.414;2022-07-21T07:18:10;19.20;99.90
6978;DHT22;3529;53.244;10.414;2022-07-21T07:20:36;19.30;99.90
6978;DHT22;3529;53.244;10.414;2022-07-21T07:23:03;19.30;99.90
6978;DHT22;3529;53.244;10.414;2022-07-21T07:25:29;19.40;99.90
6978;DHT22;3529;53.244;10.414;2022-07-21T07:27:54;19.40;99.90
6978;DHT22;3529;53.244;10.414;2022-07-21T07:30:22;19.50;99.90
6978;DHT22;3529;53.244;10.414;2022-07-21T07:32:48;19.60;99.90
6978;DHT22;3529;53.244;10.414;2022-07-21T07:35:14;19.70;99.90
6978;DHT22;3529;53.244;10.414;2022-07-21T07:37:42;19.80;99.90
6978;DHT22;3529;53.244;10.414;2022-07-21T07:40:11;19.90;99.90
6978;DHT22;3529;53.244;10.414;2022-07-21T07:42:38;20.30;99.90
6978;DHT22;3529;53.244;10.414;2022-07-21T07:45:06;20.80;99.90
6978;DHT22;3529;53.244;10.414;2022-07-21T07:47:32;21.10;99.90
6978;DHT22;3529;53.244;10.414;2022-07-21T07:49:58;21.20;99.90
6978;DHT22;3529;53.244;10.414;2022-07-21T07:52:25;21.30;99.90
6978;DHT22;3529;53.244;10.414;2022-07-21T07:54:50;21.40;99.90
6978;DHT22;3529;53.244;10.414;2022-07-21T07:57:16;21.50;99.90
6978;DHT22;3529;53.244;10.414;2022-07-21T07:59:42;21.60;99.90
6978;DHT22;3529;53.244;10.414;2022-07-21T08:02:07;22.00;99.90
6978;DHT22;3529;53.244;10.414;2022-07-21T08:04:33;22.30;99.90
6978;DHT22;3529;53.244;10.414;2022-07-21T08:07:01;22.50;99.90
6978;DHT22;3529;53.244;10.414;2022-07-21T08:09:26;22.60;99.90
6978;DHT22;3529;53.244;10.414;2022-07-21T08:11:52;22.60;99.90
6978;DHT22;3529;53.244;10.414;2022-07-21T08:14:18;22.60;99.90
6978;DHT22;3529;53.244;10.414;2022-07-21T08:16:43;22.60;99.90
6978;DHT22;3529;53.244;10.414;2022-07-21T08:19:10;22.70;99.90
6978;DHT22;3529;53.244;10.414;2022-07-21T08:21:36;22.70;99.90
6978;DHT22;3529;53.244;10.414;2022-07-21T08:24:01;22.80;99.90
6978;DHT22;3529;53.244;10.414;2022-07-21T08:26:27;23.00;99.90
6978;DHT22;3529;53.244;10.414;2022-07-21T08:28:54;23.30;99.90
6978;DHT22;3529;53.244;10.414;2022-07-21T08:31:21;23.60;99.90
6978;DHT22;3529;53.244;10.414;2022-07-21T08:33:46;23.80;99.90
6978;DHT22;3529;53.244;10.414;2022-07-21T08:36:12;24.10;99.90
6978;DHT22;3529;53.244;10.414;2022-07-21T08:38:38;24.30;99.90
6978;DHT22;3529;53.244;10.414;2022-07-21T08:41:04;24.30;99.90
6978;DHT22;3529;53.244;10.414;2022-07-21T08:43:30;24.30;99.90
6978;DHT22;3529;53.244;10.414;2022-07-21T08:45:56;24.40;99.90
6978;DHT22;3529;53.244;10.414;2022-07-21T08:48:25;24.60;99.90
6978;DHT22;3529;53.244;10.414;2022-07-21T08:50:51;24.60;99.90
6978;DHT22;3529;53.244;10.414;2022-07-21T08:53:17;24.70;99.90
6978;DHT22;3529;53.244;10.414;2022-07-21T08:55:43;24.90;99.90
6978;DHT22;3529;53.244;10.414;2022-07-21T08:58:10;25.10;99.90
6978;DHT22;3529;53.244;10.414;2022-07-21T09:00:38;25.40;99.90
6978;DHT22;3529;53.244;10.414;2022-07-21T09:03:18;25.70;99.90
6978;DHT22;3529;53.244;10.414;2022-07-21T09:08:50;26.00;99.90
6978;DHT22;3529;53.244;10.414;2022-07-21T09:11:19;26.10;99.90
6978;DHT22;3529;53.244;10.414;2022-07-21T09:13:47;26.30;99.90
6978;DHT22;3529;53.244;10.414;2022-07-21T09:16:41;26.50;99.90
6978;DHT22;3529;53.244;10.414;2022-07-21T09:19:27;27.40;99.90
6978;DHT22;3529;53.244;10.414;2022-07-21T09:21:56;28.30;99.90
6978;DHT22;3529;53.244;10.414;2022-07-21T09:24:28;28.30;99.90
6978;DHT22;3529;53.244;10.414;2022-07-21T09:27:17;28.40;99.90
6978;DHT22;3529;53.244;10.414;2022-07-21T09:32:19;28.10;99.90
6978;DHT22;3529;53.244;10.414;2022-07-21T09:34:51;28.60;99.90
6978;DHT22;3529;53.244;10.414;2022-07-21T09:37:18;28.90;99.90
6978;DHT22;3529;53.244;10.414;2022-07-21T09:39:50;28.70;99.90
6978;DHT22;3529;53.244;10.414;2022-07-21T09:42:21;28.10;99.90
6978;DHT22;3529;53.244;10.414;2022-07-21T09:44:55;27.60;99.90
6978;DHT22;3529;53.244;10.414;2022-07-21T09:47:23;27.20;99.90
6978;DHT22;3529;53.244;10.414;2022-07-21T09:49:50;26.90;99.90
6978;DHT22;3529;53.244;10.414;2022-07-21T09:54:52;26.20;99.90
6978;DHT22;3529;53.244;10.414;2022-07-21T09:57:19;26.10;99.90
6978;DHT22;3529;53.244;10.414;2022-07-21T09:59:47;26.00;99.90
6978;DHT22;3529;53.244;10.414;2022-07-21T10:02:18;25.90;99.90
6978;DHT22;3529;53.244;10.414;2022-07-21T10:04:55;25.90;99.90
6978;DHT22;3529;53.244;10.414;2022-07-21T10:07:22;25.90;99.90
6978;DHT22;3529;53.244;10.414;2022-07-21T10:09:47;25.90;99.90
6978;DHT22;3529;53.244;10.414;2022-07-21T10:12:15;25.90;99.90
6978;DHT22;3529;53.244;10.414;2022-07-21T10:14:42;26.00;99.90
6978;DHT22;3529;53.244;10.414;2022-07-21T10:17:08;26.20;99.90
6978;DHT22;3529;53.244;10.414;2022-07-21T10:20:34;26.40;99.90
6978;DHT22;3529;53.244;10.414;2022-07-21T10:23:14;27.50;99.90
6978;DHT22;3529;53.244;10.414;2022-07-21T10:25:41;29.20;99.90
6978;DHT22;3529;53.244;10.414;2022-07-21T10:30:48;29.60;99.90
6978;DHT22;3529;53.244;10.414;2022-07-21T10:33:16;29.40;99.90
6978;DHT22;3529;53.244;10.414;2022-07-21T10:35:43;29.40;99.90
6978;DHT22;3529;53.244;10.414;2022-07-21T10:38:30;29.30;99.90
6978;DHT22;3529;53.244;10.414;2022-07-21T10:40:58;29.10;99.90
6978;DHT22;3529;53.244;10.414;2022-07-21T10:45:49;29.30;99.90
6978;DHT22;3529;53.244;10.414;2022-07-21T10:51:04;29.20;99.90
6978;DHT22;3529;53.244;10.414;2022-07-21T10:53:32;28.60;99.90
6978;DHT22;3529;53.244;10.414;2022-07-21T10:55:58;27.90;99.90
6978;DHT22;3529;53.244;10.414;2022-07-21T10:58:31;27.30;99.90
6978;DHT22;3529;53.244;10.414;2022-07-21T11:03:27;26.20;99.90
6978;DHT22;3529;53.244;10.414;2022-07-21T11:08:36;25.50;99.90
6978;DHT22;3529;53.244;10.414;2022-07-21T11:11:19;25.30;99.90
6978;DHT22;3529;53.244;10.414;2022-07-21T11:14:05;25.20;99.90
6978;DHT22;3529;53.244;10.414;2022-07-21T11:19:30;25.10;99.90
6978;DHT22;3529;53.244;10.414;2022-07-21T11:21:59;25.10;99.90
6978;DHT22;3529;53.244;10.414;2022-07-21T11:24:26;25.10;99.90
6978;DHT22;3529;53.244;10.414;2022-07-21T11:26:57;25.10;99.90
6978;DHT22;3529;53.244;10.414;2022-07-21T11:29:23;25.10;99.90
6978;DHT22;3529;53.244;10.414;2022-07-21T11:31:49;25.20;99.90
6978;DHT22;3529;53.244;10.414;2022-07-21T11:34:15;25.30;99.90
6978;DHT22;3529;53.244;10.414;2022-07-21T11:36:41;25.50;99.90
6978;DHT22;3529;53.244;10.414;2022-07-21T11:39:10;25.60;99.90
6978;DHT22;3529;53.244;10.414;2022-07-21T11:41:37;25.70;99.90
6978;DHT22;3529;53.244;10.414;2022-07-21T11:44:04;25.80;99.90
6978;DHT22;3529;53.244;10.414;2022-07-21T11:46:53;25.80;99.90
6978;DHT22;3529;53.244;10.414;2022-07-21T11:49:19;26.10;99.90
6978;DHT22;3529;53.244;10.414;2022-07-21T11:51:56;26.20;99.90
6978;DHT22;3529;53.244;10.414;2022-07-21T11:56:58;26.50;99.90
6978;DHT22;3529;53.244;10.414;2022-07-21T11:59:25;26.60;99.90
6978;DHT22;3529;53.244;10.414;2022-07-21T12:02:05;26.70;99.90
6978;DHT22;3529;53.244;10.414;2022-07-21T12:07:02;27.30;99.90
6978;DHT22;3529;53.244;10.414;2022-07-21T12:09:28;27.50;99.90
6978;DHT22;3529;53.244;10.414;2022-07-21T12:11:54;27.50;99.90
6978;DHT22;3529;53.244;10.414;2022-07-21T12:14:20;27.50;99.90
6978;DHT22;3529;53.244;10.414;2022-07-21T12:16:52;27.20;99.90
6978;DHT22;3529;53.244;10.414;2022-07-21T12:19:19;27.10;99.90
6978;DHT22;3529;53.244;10.414;2022-07-21T12:21:50;27.20;99.90
6978;DHT22;3529;53.244;10.414;2022-07-21T12:24:16;27.30;99.90
6978;DHT22;3529;53.244;10.414;2022-07-21T12:26:43;27.40;99.90
6978;DHT22;3529;53.244;10.414;2022-07-21T12:29:09;27.60;99.90
6978;DHT22;3529;53.244;10.414;2022-07-21T12:31:35;27.60;99.90
6978;DHT22;3529;53.244;10.414;2022-07-21T12:34:13;27.40;99.90
6978;DHT22;3529;53.244;10.414;2022-07-21T12:36:42;27.20;99.90
6978;DHT22;3529;53.244;10.414;2022-07-21T12:41:46;27.70;99.90
6978;DHT22;3529;53.244;10.414;2022-07-21T12:44:11;28.50;99.90
6978;DHT22;3529;53.244;10.414;2022-07-21T12:46:37;29.20;99.90
6978;DHT22;3529;53.244;10.414;2022-07-21T12:49:09;29.60;99.90
6978;DHT22;3529;53.244;10.414;2022-07-21T12:51:35;29.70;99.90
6978;DHT22;3529;53.244;10.414;2022-07-21T12:54:01;29.90;99.90
6978;DHT22;3529;53.244;10.414;2022-07-21T12:56:29;30.10;99.90
6978;DHT22;3529;53.244;10.414;2022-07-21T12:58:58;30.30;99.90
6978;DHT22;3529;53.244;10.414;2022-07-21T13:01:26;30.30;99.90
6978;DHT22;3529;53.244;10.414;2022-07-21T13:03:52;30.80;99.90
6978;DHT22;3529;53.244;10.414;2022-07-21T13:06:18;30.10;99.90
6978;DHT22;3529;53.244;10.414;2022-07-21T13:08:45;29.70;99.90
6978;DHT22;3529;53.244;10.414;2022-07-21T13:11:17;29.30;99.90
6978;DHT22;3529;53.244;10.414;2022-07-21T13:13:44;29.00;99.90
6978;DHT22;3529;53.244;10.414;2022-07-21T13:16:11;28.80;99.90
6978;DHT22;3529;53.244;10.414;2022-07-21T13:18:37;28.70;99.90
6978;DHT22;3529;53.244;10.414;2022-07-21T13:21:03;29.00;99.90
6978;DHT22;3529;53.244;10.414;2022-07-21T13:23:29;29.50;99.90
6978;DHT22;3529;53.244;10.414;2022-07-21T13:25:55;29.60;99.90
6978;DHT22;3529;53.244;10.414;2022-07-21T13:28:20;29.40;99.90
6978;DHT22;3529;53.244;10.414;2022-07-21T13:30:46;29.20;99.90
6978;DHT22;3529;53.244;10.414;2022-07-21T13:33:13;29.00;99.90
6978;DHT22;3529;53.244;10.414;2022-07-21T13:35:39;28.60;99.90
6978;DHT22;3529;53.244;10.414;2022-07-21T13:38:04;28.20;99.90
6978;DHT22;3529;53.244;10.414;2022-07-21T13:40:30;27.80;99.90
6978;DHT22;3529;53.244;10.414;2022-07-21T13:42:56;27.40;99.90
6978;DHT22;3529;53.244;10.414;2022-07-21T13:45:22;27.30;99.90
6978;DHT22;3529;53.244;10.414;2022-07-21T13:47:47;27.40;99.90
6978;DHT22;3529;53.244;10.414;2022-07-21T13:50:13;27.80;99.90
6978;DHT22;3529;53.244;10.414;2022-07-21T13:52:39;27.80;99.90
6978;DHT22;3529;53.244;10.414;2022-07-21T13:55:07;27.80;99.90
6978;DHT22;3529;53.244;10.414;2022-07-21T13:57:33;27.70;99.90
6978;DHT22;3529;53.244;10.414;2022-07-21T13:59:58;27.60;99.90
6978;DHT22;3529;53.244;10.414;2022-07-21T14:02:24;27.40;99.90
6978;DHT22;3529;53.244;10.414;2022-07-21T14:04:49;27.20;99.90
6978;DHT22;3529;53.244;10.414;2022-07-21T14:07:15;27.00;99.90
6978;DHT22;3529;53.244;10.414;2022-07-21T14:09:41;27.00;99.90
6978;DHT22;3529;53.244;10.414;2022-07-21T14:12:07;27.10;99.90
6978;DHT22;3529;53.244;10.414;2022-07-21T14:14:33;27.40;99.90
6978;DHT22;3529;53.244;10.414;2022-07-21T14:16:58;28.00;99.90
6978;DHT22;3529;53.244;10.414;2022-07-21T14:19:24;28.80;99.90
6978;DHT22;3529;53.244;10.414;2022-07-21T14:21:50;29.30;99.90
6978;DHT22;3529;53.244;10.414;2022-07-21T14:24:15;29.50;99.90
6978;DHT22;3529;53.244;10.414;2022-07-21T14:27:00;29.50;99.90
6978;DHT22;3529;53.244;10.414;2022-07-21T14:29:26;29.20;99.90
6978;DHT22;3529;53.244;10.414;2022-07-21T14:31:52;28.80;99.90
6978;DHT22;3529;53.244;10.414;2022-07-21T14:34:17;28.30;99.90
6978;DHT22;3529;53.244;10.414;2022-07-21T14:36:43;27.90;99.90
6978;DHT22;3529;53.244;10.414;2022-07-21T14:39:09;27.50;99.90
6978;DHT22;3529;53.244;10.414;2022-07-21T14:41:34;27.20;99.90
6978;DHT22;3529;53.244;10.414;2022-07-21T14:44:00;26.90;99.90
6978;DHT22;3529;53.244;10.414;2022-07-21T14:46:26;26.70;99.90
6978;DHT22;3529;53.244;10.414;2022-07-21T14:48:52;26.50;99.90
6978;DHT22;3529;53.244;10.414;2022-07-21T14:51:17;26.20;99.90
6978;DHT22;3529;53.244;10.414;2022-07-21T14:53:43;25.70;99.90
6978;DHT22;3529;53.244;10.414;2022-07-21T14:56:09;25.20;99.90
6978;DHT22;3529;53.244;10.414;2022-07-21T14:58:35;24.70;99.90
6978;DHT22;3529;53.244;10.414;2022-07-21T15:01:01;24.10;99.90
6978;DHT22;3529;53.244;10.414;2022-07-21T15:03:26;23.60;99.90
6978;DHT22;3529;53.244;10.414;2022-07-21T15:05:52;23.20;99.90
6978;DHT22;3529;53.244;10.414;2022-07-21T15:08:18;22.80;99.90
6978;DHT22;3529;53.244;10.414;2022-07-21T15:10:44;22.40;99.90
6978;DHT22;3529;53.244;10.414;2022-07-21T15:13:12;22.10;99.90
6978;DHT22;3529;53.244;10.414;2022-07-21T15:15:38;21.80;99.90
6978;DHT22;3529;53.244;10.414;2022-07-21T15:18:06;21.40;99.90
6978;DHT22;3529;53.244;10.414;2022-07-21T15:20:32;21.00;99.90
6978;DHT22;3529;53.244;10.414;2022-07-21T15:22:58;20.60;99.90
6978;DHT22;3529;53.244;10.414;2022-07-21T15:25:23;20.20;99.90
6978;DHT22;3529;53.244;10.414;2022-07-21T15:27:49;19.90;99.90
6978;DHT22;3529;53.244;10.414;2022-07-21T15:30:15;19.60;99.90
6978;DHT22;3529;53.244;10.414;2022-07-21T15:32:42;19.50;99.90
6978;DHT22;3529;53.244;10.414;2022-07-21T15:35:08;19.30;99.90
6978;DHT22;3529;53.244;10.414;2022-07-21T15:37:35;19.20;99.90
6978;DHT22;3529;53.244;10.414;2022-07-21T15:40:00;19.10;99.90
6978;DHT22;3529;53.244;10.414;2022-07-21T15:42:26;19.10;99.90
6978;DHT22;3529;53.244;10.414;2022-07-21T15:44:54;19.20;99.90
6978;DHT22;3529;53.244;10.414;2022-07-21T15:47:20;19.20;99.90
6978;DHT22;3529;53.244;10.414;2022-07-21T15:49:45;19.20;99.90
6978;DHT22;3529;53.244;10.414;2022-07-21T15:52:13;19.30;99.90
6978;DHT22;3529;53.244;10.414;2022-07-21T15:54:39;19.30;99.90
6978;DHT22;3529;53.244;10.414;2022-07-21T15:57:07;19.40;99.90
6978;DHT22;3529;53.244;10.414;2022-07-21T15:59:33;19.50;99.90
6978;DHT22;3529;53.244;10.414;2022-07-21T16:02:16;19.60;99.90
6978;DHT22;3529;53.244;10.414;2022-07-21T16:04:43;19.70;99.90
6978;DHT22;3529;53.244;10.414;2022-07-21T16:07:10;19.80;99.90
6978;DHT22;3529;53.244;10.414;2022-07-21T16:09:37;19.80;99.90
6978;DHT22;3529;53.244;10.414;2022-07-21T16:12:04;19.90;99.90
6978;DHT22;3529;53.244;10.414;2022-07-21T16:14:30;19.90;99.90
6978;DHT22;3529;53.244;10.414;2022-07-21T16:16:56;19.90;99.90